createdAt,value
2022-09-10T00:01:29.157Z,98373.25
2022-09-10T00:03:56.645Z,98366.81
2022-09-10T00:06:27.686Z,98371.25
2022-09-10T00:08:57.328Z,98368.13
2022-09-10T00:11:26.323Z,98364.44
2022-09-10T00:13:53.817Z,98360.19
2022-09-10T00:16:21.997Z,98362.63
2022-09-10T00:18:50.179Z,98363.69
2022-09-10T00:21:20.875Z,98354.84
2022-09-10T00:23:49.109Z,98358.19
2022-09-10T00:26:21.648Z,98362.69
2022-09-10T00:28:50.508Z,98359.34
2022-09-10T00:31:18.798Z,98363.72
2022-09-10T00:33:46.049Z,98368.03
2022-09-10T00:36:20.008Z,98360.78
2022-09-10T00:38:48.047Z,98365.16
2022-09-10T00:41:16.496Z,98355.50
2022-09-10T00:43:55.429Z,98354.94
2022-09-10T00:46:31.306Z,98353.34
2022-09-10T00:49:02.568Z,98353.69
2022-09-10T00:51:33.042Z,98358.97
2022-09-10T00:54:01.961Z,98358.19
2022-09-10T00:56:30.202Z,98354.50
2022-09-10T00:58:57.853Z,98346.25
2022-09-10T01:01:25.440Z,98349.09
2022-09-10T01:03:54.377Z,98335.31
2022-09-10T01:06:21.602Z,98333.91
2022-09-10T01:08:48.818Z,98329.47
2022-09-10T01:11:21.936Z,98328.75
2022-09-10T01:14:13.915Z,98326.00
2022-09-10T01:16:44.382Z,98315.63
2022-09-10T01:19:27.071Z,98318.84
2022-09-10T01:22:06.396Z,98321.00
2022-09-10T01:24:57.604Z,98333.94
2022-09-10T01:27:33.892Z,98331.50
2022-09-10T01:30:09.398Z,98323.34
2022-09-10T01:33:03.860Z,98324.59
2022-09-10T01:35:54.813Z,98328.06
2022-09-10T01:38:27.039Z,98338.53
2022-09-10T01:40:56.128Z,98326.72
2022-09-10T01:43:25.322Z,98327.38
2022-09-10T01:46:05.590Z,98328.53
2022-09-10T01:48:42.856Z,98331.72
2022-09-10T01:51:53.151Z,98337.59
2022-09-10T01:54:29.508Z,98327.00
2022-09-10T01:57:19.378Z,98326.09
2022-09-10T01:59:55.764Z,98327.69
2022-09-10T02:02:43.558Z,98320.31
2022-09-10T02:05:12.159Z,98316.97
2022-09-10T02:07:39.752Z,98314.88
2022-09-10T02:10:09.361Z,98323.16
2022-09-10T02:12:43.636Z,98323.72
2022-09-10T02:15:30.101Z,98319.25
2022-09-10T02:18:12.599Z,98318.44
2022-09-10T02:20:40.566Z,98322.47
2022-09-10T02:23:09.311Z,98325.56
2022-09-10T02:25:39.474Z,98324.88
2022-09-10T02:28:06.772Z,98330.16
2022-09-10T02:30:33.957Z,98336.25
2022-09-10T02:33:01.291Z,98335.13
2022-09-10T02:35:28.566Z,98336.06
2022-09-10T02:37:56.795Z,98333.66
2022-09-10T02:40:24.936Z,98325.47
2022-09-10T02:42:52.163Z,98328.34
2022-09-10T02:45:24.417Z,98332.50
2022-09-10T02:47:52.544Z,98340.34
2022-09-10T02:50:19.887Z,98343.47
2022-09-10T02:52:47.181Z,98345.06
2022-09-10T02:55:15.501Z,98336.09
2022-09-10T02:57:43.975Z,98337.25
2022-09-10T03:00:11.898Z,98331.69
2022-09-10T03:02:40.305Z,98336.53
2022-09-10T03:05:08.312Z,98336.84
2022-09-10T03:07:35.673Z,98334.31
2022-09-10T03:10:03.087Z,98339.84
2022-09-10T03:12:30.346Z,98338.34
2022-09-10T03:14:58.999Z,98335.22
2022-09-10T03:17:26.949Z,98335.47
2022-09-10T03:19:54.803Z,98337.75
2022-09-10T03:22:22.328Z,98337.44
2022-09-10T03:24:49.678Z,98336.06
2022-09-10T03:27:18.163Z,98342.94
2022-09-10T03:29:45.626Z,98342.03
2022-09-10T03:32:14.381Z,98331.06
2022-09-10T03:34:41.899Z,98341.41
2022-09-10T03:37:09.107Z,98331.47
2022-09-10T03:39:36.637Z,98332.97
2022-09-10T03:42:05.261Z,98332.75
2022-09-10T03:44:33.651Z,98335.44
2022-09-10T03:47:01.731Z,98352.91
2022-09-10T03:49:29.239Z,98362.00
2022-09-10T03:51:56.830Z,98358.66
2022-09-10T03:54:24.863Z,98379.22
2022-09-10T03:56:52.181Z,98370.94
2022-09-10T03:59:19.470Z,98370.75
2022-09-10T04:01:47.276Z,98375.13
2022-09-10T04:04:15.049Z,98376.97
2022-09-10T04:06:42.633Z,98373.28
2022-09-10T04:09:10.866Z,98377.41
2022-09-10T04:11:38.276Z,98380.63
2022-09-10T04:14:05.898Z,98386.16
2022-09-10T04:16:36.530Z,98385.59
2022-09-10T04:19:05.885Z,98382.16
2022-09-10T04:21:33.154Z,98396.38
2022-09-10T04:24:00.660Z,98402.09
2022-09-10T04:26:28.040Z,98402.56
2022-09-10T04:28:56.202Z,98411.28
2022-09-10T04:31:23.586Z,98410.72
2022-09-10T04:33:53.666Z,98410.84
2022-09-10T04:36:24.142Z,98414.63
2022-09-10T04:38:51.464Z,98412.94
2022-09-10T04:41:19.478Z,98407.06
2022-09-10T04:43:47.678Z,98413.75
2022-09-10T04:46:15.723Z,98425.81
2022-09-10T04:48:43.596Z,98414.78
2022-09-10T04:51:16.974Z,98421.78
2022-09-10T04:53:47.640Z,98426.72
2022-09-10T04:56:15.171Z,98427.31
2022-09-10T04:58:44.157Z,98428.09
2022-09-10T05:01:12.673Z,98436.47
2022-09-10T05:03:40.313Z,98431.00
2022-09-10T05:06:09.005Z,98431.56
2022-09-10T05:08:36.874Z,98437.91
2022-09-10T05:11:05.590Z,98452.97
2022-09-10T05:13:34.021Z,98461.56
2022-09-10T05:16:02.448Z,98476.63
2022-09-10T05:18:32.214Z,98473.66
2022-09-10T05:20:59.834Z,98476.31
2022-09-10T05:23:28.513Z,98490.69
2022-09-10T05:25:57.883Z,98492.53
2022-09-10T05:28:25.221Z,98498.88
2022-09-10T05:30:53.213Z,98504.09
2022-09-10T05:33:23.710Z,98510.91
2022-09-10T05:35:51.833Z,98509.28
2022-09-10T05:38:20.054Z,98515.84
2022-09-10T05:40:48.185Z,98520.69
2022-09-10T05:43:15.537Z,98517.69
2022-09-10T05:45:44.973Z,98531.28
2022-09-10T05:48:13.261Z,98526.81
2022-09-10T05:50:41.376Z,98518.31
2022-09-10T05:53:09.865Z,98519.69
2022-09-10T05:55:38.089Z,98525.34
2022-09-10T05:58:06.925Z,98522.09
2022-09-10T06:00:36.889Z,98530.63
2022-09-10T06:03:05.414Z,98530.16
2022-09-10T06:05:41.558Z,98530.38
2022-09-10T06:08:09.263Z,98528.97
2022-09-10T06:10:42.061Z,98527.84
2022-09-10T06:13:11.179Z,98534.72
2022-09-10T06:15:40.814Z,98532.28
2022-09-10T06:18:09.292Z,98539.22
2022-09-10T06:20:37.633Z,98534.28
2022-09-10T06:23:07.123Z,98533.94
2022-09-10T06:25:34.369Z,98533.00
2022-09-10T06:28:02.190Z,98530.63
2022-09-10T06:30:29.790Z,98531.06
2022-09-10T06:32:57.504Z,98528.91
2022-09-10T06:35:25.446Z,98531.31
2022-09-10T06:37:54.251Z,98531.88
2022-09-10T06:40:22.321Z,98533.28
2022-09-10T06:42:49.613Z,98537.03
2022-09-10T06:45:20.034Z,98550.59
2022-09-10T06:50:59.209Z,98537.97
2022-09-10T06:53:33.631Z,98546.81
2022-09-10T06:56:03.663Z,98535.22
2022-09-10T06:58:35.259Z,98541.88
2022-09-10T07:01:14.860Z,98538.69
2022-09-10T07:03:46.595Z,98538.63
2022-09-10T07:06:17.886Z,98533.25
2022-09-10T07:08:48.490Z,98545.50
2022-09-10T07:11:16.413Z,98539.22
2022-09-10T07:13:50.730Z,98548.34
2022-09-10T07:16:19.909Z,98540.63
2022-09-10T07:18:55.921Z,98556.22
2022-09-10T07:21:28.851Z,98549.72
2022-09-10T07:24:03.527Z,98552.94
2022-09-10T07:26:30.889Z,98544.09
2022-09-10T07:28:59.619Z,98537.06
2022-09-10T07:31:28.090Z,98533.16
2022-09-10T07:34:00.994Z,98540.50
2022-09-10T07:36:29.066Z,98534.94
2022-09-10T07:39:01.480Z,98536.94
2022-09-10T07:41:33.999Z,98535.72
2022-09-10T07:44:03.564Z,98526.00
2022-09-10T07:46:37.957Z,98533.81
2022-09-10T07:49:09.239Z,98522.28
2022-09-10T07:51:38.306Z,98513.13
2022-09-10T07:54:06.902Z,98503.25
2022-09-10T07:56:38.755Z,98511.97
2022-09-10T07:59:08.966Z,98503.69
2022-09-10T08:02:01.576Z,98491.53
2022-09-10T08:04:36.683Z,98491.88
2022-09-10T08:07:06.783Z,98491.78
2022-09-10T08:09:36.674Z,98492.63
2022-09-10T08:12:07.661Z,98487.13
2022-09-10T08:14:37.370Z,98492.84
2022-09-10T08:17:05.675Z,98497.94
2022-09-10T08:19:37.358Z,98491.38
2022-09-10T08:22:04.870Z,98489.63
2022-09-10T08:24:39.603Z,98495.38
2022-09-10T08:27:06.851Z,98492.38
2022-09-10T08:29:34.993Z,98502.03
2022-09-10T08:32:02.482Z,98493.19
2022-09-10T08:34:34.338Z,98496.72
2022-09-10T08:37:08.366Z,98501.53
2022-09-10T08:39:37.401Z,98496.97
2022-09-10T08:42:15.255Z,98496.50
2022-09-10T08:44:52.310Z,98503.09
2022-09-10T08:47:33.326Z,98498.25
2022-09-10T08:50:22.814Z,98493.56
2022-09-10T08:53:04.957Z,98491.81
2022-09-10T08:55:35.648Z,98499.69
2022-09-10T08:58:13.042Z,98496.38
2022-09-10T09:00:44.414Z,98501.22
2022-09-10T09:03:25.168Z,98503.78
2022-09-10T09:06:02.072Z,98505.13
2022-09-10T09:08:41.070Z,98500.38
2022-09-10T09:11:31.656Z,98500.31
2022-09-10T09:14:20.299Z,98494.56
2022-09-10T09:17:13.011Z,98496.84
2022-09-10T09:20:08.307Z,98472.38
2022-09-10T09:22:51.538Z,98483.31
2022-09-10T09:25:23.039Z,98477.50
2022-09-10T09:27:57.716Z,98489.03
2022-09-10T09:30:49.503Z,98488.91
2022-09-10T09:33:23.124Z,98475.09
2022-09-10T09:36:03.292Z,98476.75
2022-09-10T09:38:45.108Z,98471.25
2022-09-10T09:41:35.005Z,98461.00
2022-09-10T09:44:39.427Z,98480.16
2022-09-10T09:47:09.303Z,98490.63
2022-09-10T09:49:39.856Z,98486.75
2022-09-10T09:52:22.704Z,98473.31
2022-09-10T09:57:42.878Z,98469.63
2022-09-10T10:00:37.822Z,98465.97
2022-09-10T10:03:12.967Z,98474.66
2022-09-10T10:05:40.342Z,98469.34
2022-09-10T10:08:30.881Z,98467.03
2022-09-10T10:11:00.451Z,98462.13
2022-09-10T10:13:40.235Z,98448.41
2022-09-10T10:16:37.832Z,98444.53
2022-09-10T10:19:27.270Z,98468.44
2022-09-10T10:21:54.919Z,98465.78
2022-09-10T10:24:42.465Z,98473.50
2022-09-10T10:27:38.322Z,98475.41
2022-09-10T10:30:22.127Z,98478.25
2022-09-10T10:33:00.132Z,98480.41
2022-09-10T10:35:32.920Z,98473.66
2022-09-10T10:38:06.395Z,98482.16
2022-09-10T10:40:36.886Z,98480.34
2022-09-10T10:43:28.467Z,98473.00
2022-09-10T10:46:12.685Z,98460.94
2022-09-10T10:49:11.446Z,98455.44
2022-09-10T10:51:50.675Z,98456.31
2022-09-10T10:54:55.251Z,98468.47
2022-09-10T10:57:56.325Z,98475.13
2022-09-10T11:00:24.715Z,98473.06
2022-09-10T11:03:16.231Z,98481.63
2022-09-10T11:05:48.323Z,98492.47
2022-09-10T11:08:27.127Z,98482.34
2022-09-10T11:11:02.559Z,98485.00
2022-09-10T11:13:53.916Z,98470.44
2022-09-10T11:16:40.424Z,98441.63
2022-09-10T11:19:21.869Z,98466.91
2022-09-10T11:21:58.730Z,98463.78
2022-09-10T11:24:34.732Z,98456.63
2022-09-10T11:27:23.238Z,98462.47
2022-09-10T11:30:04.963Z,98466.47
2022-09-10T11:32:53.657Z,98450.91
2022-09-10T11:35:23.678Z,98455.94
2022-09-10T11:38:17.076Z,98456.00
2022-09-10T11:40:58.008Z,98456.97
2022-09-10T11:43:33.408Z,98457.47
2022-09-10T11:46:05.856Z,98459.13
2022-09-10T11:48:38.341Z,98451.00
2022-09-10T11:51:15.907Z,98437.84
2022-09-10T11:53:44.180Z,98439.25
2022-09-10T11:56:33.219Z,98451.28
2022-09-10T11:59:15.734Z,98448.41
2022-09-10T12:01:55.095Z,98451.44
2022-09-10T12:04:50.057Z,98441.75
2022-09-10T12:07:21.109Z,98448.16
2022-09-10T12:10:09.960Z,98433.97
2022-09-10T12:12:49.798Z,98432.16
2022-09-10T12:15:20.048Z,98411.56
2022-09-10T12:18:13.559Z,98419.91
2022-09-10T12:20:51.338Z,98415.16
2022-09-10T12:23:30.104Z,98416.34
2022-09-10T12:26:19.677Z,98418.97
2022-09-10T12:28:49.746Z,98419.03
2022-09-10T12:31:18.743Z,98419.50
2022-09-10T12:33:46.017Z,98425.53
2022-09-10T12:36:46.300Z,98411.41
2022-09-10T12:39:28.730Z,98409.63
2022-09-10T12:41:59.123Z,98416.47
2022-09-10T12:44:36.028Z,98404.22
2022-09-10T12:47:15.117Z,98409.47
2022-09-10T12:49:57.330Z,98403.25
2022-09-10T12:52:48.873Z,98403.88
2022-09-10T12:55:29.082Z,98399.06
2022-09-10T12:58:14.885Z,98394.22
2022-09-10T13:00:54.441Z,98388.56
2022-09-10T13:03:24.365Z,98401.84
2022-09-10T13:05:54.970Z,98408.94
2022-09-10T13:08:33.219Z,98410.41
2022-09-10T13:11:01.311Z,98414.22
2022-09-10T13:13:40.519Z,98417.19
2022-09-10T13:16:15.723Z,98412.91
2022-09-10T13:18:43.242Z,98408.59
2022-09-10T13:21:22.662Z,98408.03
2022-09-10T13:23:56.710Z,98401.09
2022-09-10T13:26:34.109Z,98413.97
2022-09-10T13:29:04.902Z,98415.03
2022-09-10T13:31:39.465Z,98420.94
2022-09-10T13:34:15.609Z,98424.13
2022-09-10T13:37:10.007Z,98426.28
2022-09-10T13:40:29.007Z,98432.41
2022-09-10T13:42:56.192Z,98436.94
2022-09-10T13:45:38.109Z,98438.25
2022-09-10T13:48:25.011Z,98436.38
2022-09-10T13:51:16.943Z,98419.28
2022-09-10T13:53:46.929Z,98426.16
2022-09-10T13:56:26.686Z,98435.25
2022-09-10T13:59:00.883Z,98425.63
2022-09-10T14:01:54.354Z,98412.69
2022-09-10T14:04:26.993Z,98406.34
2022-09-10T14:07:03.931Z,98405.59
2022-09-10T14:09:32.668Z,98400.00
2022-09-10T14:12:03.896Z,98406.47
2022-09-10T14:14:36.919Z,98402.22
2022-09-10T14:17:11.464Z,98409.41
2022-09-10T14:19:51.586Z,98416.09
2022-09-10T14:22:25.178Z,98421.16
2022-09-10T14:24:56.504Z,98428.31
2022-09-10T14:27:35.333Z,98420.06
2022-09-10T14:30:24.878Z,98414.97
2022-09-10T14:32:52.946Z,98409.16
2022-09-10T14:35:40.023Z,98412.88
2022-09-10T14:38:34.254Z,98403.28
2022-09-10T14:41:08.541Z,98405.94
2022-09-10T14:43:38.971Z,98403.28
2022-09-10T14:46:08.192Z,98401.13
2022-09-10T14:48:39.947Z,98407.69
2022-09-10T14:51:18.564Z,98401.66
2022-09-10T14:53:50.919Z,98403.25
2022-09-10T14:56:44.116Z,98399.78
2022-09-10T14:59:19.514Z,98401.00
2022-09-10T15:01:48.434Z,98398.84
2022-09-10T15:04:18.849Z,98404.16
2022-09-10T15:06:46.166Z,98405.47
2022-09-10T15:09:14.842Z,98397.72
2022-09-10T15:12:09.011Z,98398.00
2022-09-10T15:14:36.931Z,98398.03
2022-09-10T15:17:04.876Z,98400.69
2022-09-10T15:19:32.402Z,98408.66
2022-09-10T15:21:59.711Z,98404.72
2022-09-10T15:24:28.320Z,98402.00
2022-09-10T15:26:56.502Z,98399.84
2022-09-10T15:29:23.958Z,98409.69
2022-09-10T15:31:51.415Z,98411.44
2022-09-10T15:34:19.352Z,98411.44
2022-09-10T15:36:46.824Z,98414.41
2022-09-10T15:39:14.172Z,98407.75
2022-09-10T15:41:43.626Z,98401.34
2022-09-10T15:44:11.667Z,98403.13
2022-09-10T15:46:45.361Z,98414.81
2022-09-10T15:49:12.815Z,98417.72
2022-09-10T15:51:41.423Z,98416.53
2022-09-10T15:54:10.955Z,98414.41
2022-09-10T15:56:39.492Z,98414.91
2022-09-10T15:59:08.583Z,98426.63
2022-09-10T16:01:38.318Z,98425.56
2022-09-10T16:04:05.901Z,98429.97
2022-09-10T16:06:36.007Z,98431.22
2022-09-10T16:09:06.757Z,98434.19
2022-09-10T16:11:36.383Z,98425.72
2022-09-10T16:14:05.354Z,98425.16
2022-09-10T16:16:33.345Z,98432.03
2022-09-10T16:19:00.884Z,98420.75
2022-09-10T16:21:32.143Z,98412.72
2022-09-10T16:24:01.252Z,98424.44
2022-09-10T16:26:37.852Z,98435.06
2022-09-10T16:29:13.722Z,98431.28
2022-09-10T16:31:41.397Z,98426.97
2022-09-10T16:34:12.077Z,98417.22
2022-09-10T16:36:40.061Z,98410.34
2022-09-10T16:39:13.352Z,98419.28
2022-09-10T16:41:42.451Z,98429.75
2022-09-10T16:44:11.165Z,98446.53
2022-09-10T16:46:39.222Z,98455.16
2022-09-10T16:49:13.919Z,98454.88
2022-09-10T16:51:42.941Z,98442.38
2022-09-10T16:54:11.039Z,98449.41
2022-09-10T16:56:40.969Z,98455.44
2022-09-10T16:59:13.918Z,98457.53
2022-09-10T17:01:43.138Z,98451.66
2022-09-10T17:04:18.539Z,98462.47
2022-09-10T17:06:46.727Z,98461.09
2022-09-10T17:09:14.954Z,98464.53
2022-09-10T17:11:42.400Z,98465.34
2022-09-10T17:14:10.382Z,98468.78
2022-09-10T17:16:39.649Z,98476.44
2022-09-10T17:19:10.983Z,98462.59
2022-09-10T17:21:40.771Z,98466.25
2022-09-10T17:24:10.703Z,98477.59
2022-09-10T17:26:39.539Z,98463.59
2022-09-10T17:29:10.234Z,98473.41
2022-09-10T17:31:37.554Z,98478.47
2022-09-10T17:34:05.079Z,98478.94
2022-09-10T17:36:34.279Z,98478.50
2022-09-10T17:39:01.603Z,98477.31
2022-09-10T17:41:29.873Z,98480.47
2022-09-10T17:43:59.521Z,98485.00
2022-09-10T17:46:27.271Z,98487.63
2022-09-10T17:48:54.663Z,98489.53
2022-09-10T17:51:27.411Z,98487.03
2022-09-10T17:53:55.740Z,98492.09
2022-09-10T17:56:24.667Z,98497.41
2022-09-10T17:59:01.395Z,98499.75
2022-09-10T18:01:31.571Z,98499.25
2022-09-10T18:03:59.068Z,98508.97
2022-09-10T18:06:29.239Z,98520.22
2022-09-10T18:09:00.758Z,98525.34
2022-09-10T18:11:30.872Z,98526.16
2022-09-10T18:13:59.237Z,98525.16
2022-09-10T18:16:29.098Z,98527.38
2022-09-10T18:19:12.908Z,98528.88
2022-09-10T18:21:41.634Z,98521.06
2022-09-10T18:24:14.924Z,98531.47
2022-09-10T18:26:44.377Z,98537.38
2022-09-10T18:29:15.539Z,98544.03
2022-09-10T18:31:45.262Z,98544.59
2022-09-10T18:34:18.522Z,98547.25
2022-09-10T18:36:54.502Z,98543.00
2022-09-10T18:39:23.095Z,98535.06
2022-09-10T18:41:51.333Z,98536.13
2022-09-10T18:44:21.731Z,98544.03
2022-09-10T18:46:50.521Z,98543.25
2022-09-10T18:49:21.475Z,98534.03
2022-09-10T18:51:49.817Z,98538.31
2022-09-10T18:54:18.158Z,98531.28
2022-09-10T18:56:46.990Z,98541.88
2022-09-10T18:59:22.137Z,98541.88
2022-09-10T19:01:53.031Z,98530.28
2022-09-10T19:04:23.799Z,98532.91
2022-09-10T19:06:51.756Z,98539.81
2022-09-10T19:09:27.570Z,98533.94
2022-09-10T19:11:56.545Z,98544.03
2022-09-10T19:14:29.886Z,98540.13
2022-09-10T19:16:58.824Z,98539.31
2022-09-10T19:19:32.272Z,98540.25
2022-09-10T19:22:07.102Z,98546.25
2022-09-10T19:24:53.882Z,98539.69
2022-09-10T19:27:22.412Z,98546.25
2022-09-10T19:29:50.237Z,98543.25
2022-09-10T19:32:19.762Z,98542.47
2022-09-10T19:34:51.103Z,98546.72
2022-09-10T19:37:19.544Z,98552.25
2022-09-10T19:39:47.609Z,98555.72
2022-09-10T19:42:15.162Z,98556.25
2022-09-10T19:44:43.550Z,98557.66
2022-09-10T19:47:10.776Z,98556.88
2022-09-10T19:49:39.105Z,98557.97
2022-09-10T19:52:06.327Z,98556.16
2022-09-10T19:54:33.553Z,98552.28
2022-09-10T19:57:00.818Z,98543.03
2022-09-10T19:59:28.201Z,98545.00
2022-09-10T20:01:55.522Z,98548.59
2022-09-10T20:04:22.971Z,98552.84
2022-09-10T20:06:50.642Z,98563.06
2022-09-10T20:09:17.990Z,98572.53
2022-09-10T20:11:45.369Z,98563.53
2022-09-10T20:14:14.332Z,98557.66
2022-09-10T20:16:45.979Z,98556.41
2022-09-10T20:19:18.151Z,98552.84
2022-09-10T20:21:47.477Z,98556.59
2022-09-10T20:24:15.572Z,98557.75
2022-09-10T20:26:43.767Z,98547.75
2022-09-10T20:29:14.176Z,98553.16
2022-09-10T20:31:43.327Z,98559.25
2022-09-10T20:34:19.452Z,98561.09
2022-09-10T20:36:53.748Z,98561.69
2022-09-10T20:39:25.255Z,98567.00
2022-09-10T20:41:53.406Z,98562.25
2022-09-10T20:44:21.066Z,98559.38
2022-09-10T20:46:48.317Z,98562.25
2022-09-10T20:49:16.443Z,98556.50
2022-09-10T20:51:44.625Z,98559.38
2022-09-10T20:54:17.640Z,98561.22
2022-09-10T20:56:45.514Z,98567.66
2022-09-10T20:59:15.495Z,98580.91
2022-09-10T21:01:46.040Z,98582.50
2022-09-10T21:04:14.218Z,98591.56
2022-09-10T21:06:41.627Z,98577.41
2022-09-10T21:09:09.045Z,98577.75
2022-09-10T21:11:36.696Z,98585.00
2022-09-10T21:14:05.823Z,98593.88
2022-09-10T21:16:38.709Z,98601.31
2022-09-10T21:19:09.398Z,98599.59
2022-09-10T21:21:39.317Z,98595.13
2022-09-10T21:24:10.143Z,98584.22
2022-09-10T21:26:39.574Z,98590.31
2022-09-10T21:29:10.652Z,98586.19
2022-09-10T21:31:38.742Z,98588.22
2022-09-10T21:34:06.493Z,98590.84
2022-09-10T21:36:35.900Z,98584.66
2022-09-10T21:39:09.791Z,98585.19
2022-09-10T21:41:40.278Z,98592.25
2022-09-10T21:44:14.246Z,98594.53
2022-09-10T21:46:43.225Z,98597.06
2022-09-10T21:49:10.915Z,98599.72
2022-09-10T21:51:38.202Z,98607.28
2022-09-10T21:54:05.925Z,98606.47
2022-09-10T21:56:33.530Z,98606.47
2022-09-10T21:59:01.253Z,98603.03
2022-09-10T22:01:30.594Z,98595.34
2022-09-10T22:04:00.653Z,98587.78
2022-09-10T22:06:37.322Z,98587.53
2022-09-10T22:09:08.436Z,98589.00
2022-09-10T22:11:42.076Z,98588.69
2022-09-10T22:14:14.948Z,98587.25
2022-09-10T22:16:42.897Z,98583.00
2022-09-10T22:19:14.101Z,98591.59
2022-09-10T22:21:41.413Z,98590.97
2022-09-10T22:24:10.808Z,98584.28
2022-09-10T22:26:43.311Z,98582.53
2022-09-10T22:29:12.219Z,98588.06
2022-09-10T22:31:39.721Z,98594.59
2022-09-10T22:34:13.567Z,98592.59
2022-09-10T22:36:42.895Z,98592.16
2022-09-10T22:39:14.586Z,98601.81
2022-09-10T22:41:42.447Z,98598.94
2022-09-10T22:44:09.983Z,98594.91
2022-09-10T22:46:38.203Z,98593.50
2022-09-10T22:49:06.326Z,98592.78
2022-09-10T22:51:36.330Z,98594.44
2022-09-10T22:54:05.280Z,98596.00
2022-09-10T22:56:35.321Z,98598.16
2022-09-10T22:59:03.677Z,98596.94
2022-09-10T23:01:37.018Z,98597.13
2022-09-10T23:04:06.510Z,98598.78
2022-09-10T23:06:36.916Z,98599.47
2022-09-10T23:09:15.514Z,98596.56
2022-09-10T23:11:44.431Z,98592.34
2022-09-10T23:14:22.132Z,98587.28
2022-09-10T23:16:50.892Z,98593.09
2022-09-10T23:19:21.091Z,98591.78
2022-09-10T23:21:54.508Z,98596.75
2022-09-10T23:24:26.347Z,98582.97
2022-09-10T23:26:54.008Z,98596.03
2022-09-10T23:29:23.362Z,98595.56
2022-09-10T23:31:54.015Z,98592.97
2022-09-10T23:34:22.152Z,98594.22
2022-09-10T23:36:49.996Z,98600.59
2022-09-10T23:39:22.612Z,98590.16
2022-09-10T23:41:52.396Z,98603.53
2022-09-10T23:44:20.305Z,98594.38
2022-09-10T23:46:48.126Z,98592.97
2022-09-10T23:49:15.974Z,98597.25
2022-09-10T23:51:43.390Z,98592.97
2022-09-10T23:54:12.622Z,98600.09
2022-09-10T23:56:40.118Z,98600.31
2022-09-10T23:59:07.762Z,98598.78
